sensor_id;sensor_type;location;lat;lon;timestamp;P1;durP1;ratioP1;P2;durP2;ratioP2
24813;SDS011;12904;50.088;11.414;2022-09-17T00:01:55;5.00;;;4.50;;
24813;SDS011;12904;50.088;11.414;2022-09-17T00:04:21;5.25;;;4.68;;
24813;SDS011;12904;50.088;11.414;2022-09-17T00:06:46;5.25;;;4.85;;
24813;SDS011;12904;50.088;11.414;2022-09-17T00:09:12;8.82;;;4.85;;
24813;SDS011;12904;50.088;11.414;2022-09-17T00:11:39;7.13;;;5.47;;
24813;SDS011;12904;50.088;11.414;2022-09-17T00:14:06;5.65;;;4.85;;
24813;SDS011;12904;50.088;11.414;2022-09-17T00:16:37;5.32;;;4.82;;
24813;SDS011;12904;50.088;11.414;2022-09-17T00:19:05;9.30;;;5.10;;
24813;SDS011;12904;50.088;11.414;2022-09-17T00:21:36;5.72;;;5.13;;
24813;SDS011;12904;50.088;11.414;2022-09-17T00:24:04;7.45;;;6.07;;
24813;SDS011;12904;50.088;11.414;2022-09-17T00:26:30;10.52;;;6.68;;
24813;SDS011;12904;50.088;11.414;2022-09-17T00:28:57;9.48;;;7.43;;
24813;SDS011;12904;50.088;11.414;2022-09-17T00:31:24;8.85;;;6.80;;
24813;SDS011;12904;50.088;11.414;2022-09-17T00:33:50;10.23;;;7.53;;
24813;SDS011;12904;50.088;11.414;2022-09-17T00:36:17;9.30;;;8.50;;
24813;SDS011;12904;50.088;11.414;2022-09-17T00:38:47;7.03;;;6.53;;
24813;SDS011;12904;50.088;11.414;2022-09-17T00:41:16;7.95;;;7.03;;
24813;SDS011;12904;50.088;11.414;2022-09-17T00:43:44;7.88;;;6.55;;
24813;SDS011;12904;50.088;11.414;2022-09-17T00:46:42;8.90;;;6.43;;
24813;SDS011;12904;50.088;11.414;2022-09-17T00:49:18;7.00;;;6.32;;
24813;SDS011;12904;50.088;11.414;2022-09-17T00:51:49;8.45;;;7.70;;
24813;SDS011;12904;50.088;11.414;2022-09-17T00:54:21;7.38;;;6.68;;
24813;SDS011;12904;50.088;11.414;2022-09-17T00:56:48;12.18;;;6.40;;
24813;SDS011;12904;50.088;11.414;2022-09-17T00:59:15;7.10;;;6.07;;
24813;SDS011;12904;50.088;11.414;2022-09-17T01:01:43;7.10;;;6.07;;
24813;SDS011;12904;50.088;11.414;2022-09-17T01:04:19;11.65;;;7.03;;
24813;SDS011;12904;50.088;11.414;2022-09-17T01:17:31;9.65;;;8.77;;
24813;SDS011;12904;50.088;11.414;2022-09-17T01:37:13;8.35;;;7.03;;
24813;SDS011;12904;50.088;11.414;2022-09-17T01:42:14;7.80;;;6.93;;
24813;SDS011;12904;50.088;11.414;2022-09-17T01:48:14;9.68;;;6.72;;
24813;SDS011;12904;50.088;11.414;2022-09-17T01:50:36;7.72;;;6.95;;
24813;SDS011;12904;50.088;11.414;2022-09-17T01:53:07;7.30;;;6.55;;
24813;SDS011;12904;50.088;11.414;2022-09-17T01:55:36;10.95;;;5.43;;
24813;SDS011;12904;50.088;11.414;2022-09-17T02:00:36;5.88;;;5.35;;
24813;SDS011;12904;50.088;11.414;2022-09-17T02:03:26;10.50;;;6.22;;
24813;SDS011;12904;50.088;11.414;2022-09-17T02:06:04;5.82;;;4.78;;
24813;SDS011;12904;50.088;11.414;2022-09-17T02:11:09;11.07;;;5.55;;
24813;SDS011;12904;50.088;11.414;2022-09-17T02:16:42;10.63;;;5.90;;
24813;SDS011;12904;50.088;11.414;2022-09-17T02:24:15;6.60;;;5.45;;
24813;SDS011;12904;50.088;11.414;2022-09-17T02:26:47;12.25;;;5.68;;
24813;SDS011;12904;50.088;11.414;2022-09-17T02:29:29;7.28;;;4.70;;
24813;SDS011;12904;50.088;11.414;2022-09-17T02:31:58;11.73;;;5.15;;
24813;SDS011;12904;50.088;11.414;2022-09-17T02:34:24;8.23;;;4.72;;
24813;SDS011;12904;50.088;11.414;2022-09-17T02:36:53;6.15;;;4.93;;
24813;SDS011;12904;50.088;11.414;2022-09-17T02:39:20;6.72;;;4.63;;
24813;SDS011;12904;50.088;11.414;2022-09-17T02:47:56;5.25;;;4.60;;
24813;SDS011;12904;50.088;11.414;2022-09-17T02:51:10;9.05;;;4.78;;
24813;SDS011;12904;50.088;11.414;2022-09-17T02:58:55;9.02;;;5.22;;
24813;SDS011;12904;50.088;11.414;2022-09-17T03:01:26;6.00;;;5.00;;
24813;SDS011;12904;50.088;11.414;2022-09-17T03:03:56;6.05;;;5.32;;
24813;SDS011;12904;50.088;11.414;2022-09-17T03:06:24;11.70;;;5.95;;
24813;SDS011;12904;50.088;11.414;2022-09-17T03:08:50;13.48;;;5.63;;
24813;SDS011;12904;50.088;11.414;2022-09-17T03:11:17;8.35;;;4.28;;
24813;SDS011;12904;50.088;11.414;2022-09-17T03:13:43;7.63;;;5.57;;
24813;SDS011;12904;50.088;11.414;2022-09-17T03:16:08;5.97;;;5.35;;
24813;SDS011;12904;50.088;11.414;2022-09-17T03:18:34;7.00;;;5.28;;
24813;SDS011;12904;50.088;11.414;2022-09-17T03:21:00;8.75;;;5.13;;
24813;SDS011;12904;50.088;11.414;2022-09-17T03:23:26;6.50;;;5.03;;
24813;SDS011;12904;50.088;11.414;2022-09-17T03:25:52;8.95;;;5.50;;
24813;SDS011;12904;50.088;11.414;2022-09-17T03:28:18;7.47;;;4.90;;
24813;SDS011;12904;50.088;11.414;2022-09-17T03:30:43;9.82;;;5.22;;
24813;SDS011;12904;50.088;11.414;2022-09-17T03:33:09;8.25;;;5.53;;
24813;SDS011;12904;50.088;11.414;2022-09-17T03:35:35;15.70;;;6.13;;
24813;SDS011;12904;50.088;11.414;2022-09-17T03:38:01;6.85;;;5.28;;
24813;SDS011;12904;50.088;11.414;2022-09-17T03:40:27;7.28;;;5.53;;
24813;SDS011;12904;50.088;11.414;2022-09-17T03:42:53;5.95;;;5.20;;
24813;SDS011;12904;50.088;11.414;2022-09-17T03:45:18;8.05;;;5.85;;
24813;SDS011;12904;50.088;11.414;2022-09-17T03:47:44;8.73;;;5.75;;
24813;SDS011;12904;50.088;11.414;2022-09-17T03:50:09;6.85;;;5.40;;
24813;SDS011;12904;50.088;11.414;2022-09-17T03:52:35;8.55;;;4.95;;
24813;SDS011;12904;50.088;11.414;2022-09-17T03:55:01;7.88;;;5.15;;
24813;SDS011;12904;50.088;11.414;2022-09-17T03:57:27;7.43;;;5.40;;
24813;SDS011;12904;50.088;11.414;2022-09-17T03:59:53;9.00;;;5.97;;
24813;SDS011;12904;50.088;11.414;2022-09-17T04:02:18;6.40;;;5.80;;
24813;SDS011;12904;50.088;11.414;2022-09-17T04:04:44;12.18;;;5.35;;
24813;SDS011;12904;50.088;11.414;2022-09-17T04:07:10;8.40;;;5.85;;
24813;SDS011;12904;50.088;11.414;2022-09-17T04:09:35;8.93;;;6.05;;
24813;SDS011;12904;50.088;11.414;2022-09-17T04:12:01;9.60;;;5.75;;
24813;SDS011;12904;50.088;11.414;2022-09-17T04:14:27;6.45;;;5.82;;
24813;SDS011;12904;50.088;11.414;2022-09-17T04:16:53;6.35;;;4.70;;
24813;SDS011;12904;50.088;11.414;2022-09-17T04:19:18;6.82;;;5.07;;
24813;SDS011;12904;50.088;11.414;2022-09-17T04:21:44;10.80;;;6.43;;
24813;SDS011;12904;50.088;11.414;2022-09-17T04:24:10;8.27;;;5.55;;
24813;SDS011;12904;50.088;11.414;2022-09-17T04:26:35;7.10;;;5.15;;
24813;SDS011;12904;50.088;11.414;2022-09-17T04:29:01;19.85;;;5.88;;
24813;SDS011;12904;50.088;11.414;2022-09-17T04:31:27;9.15;;;5.60;;
24813;SDS011;12904;50.088;11.414;2022-09-17T04:33:53;5.13;;;4.22;;
24813;SDS011;12904;50.088;11.414;2022-09-17T04:36:18;6.13;;;4.22;;
24813;SDS011;12904;50.088;11.414;2022-09-17T04:38:46;6.00;;;5.05;;
24813;SDS011;12904;50.088;11.414;2022-09-17T04:41:12;6.82;;;4.60;;
24813;SDS011;12904;50.088;11.414;2022-09-17T04:43:38;6.65;;;4.00;;
24813;SDS011;12904;50.088;11.414;2022-09-17T04:46:04;4.63;;;4.22;;
24813;SDS011;12904;50.088;11.414;2022-09-17T04:48:32;5.72;;;4.82;;
24813;SDS011;12904;50.088;11.414;2022-09-17T04:50:58;7.95;;;4.30;;
24813;SDS011;12904;50.088;11.414;2022-09-17T04:53:24;5.10;;;3.83;;
24813;SDS011;12904;50.088;11.414;2022-09-17T04:55:49;6.40;;;3.75;;
24813;SDS011;12904;50.088;11.414;2022-09-17T04:58:15;4.18;;;3.25;;
24813;SDS011;12904;50.088;11.414;2022-09-17T05:00:41;4.32;;;3.92;;
24813;SDS011;12904;50.088;11.414;2022-09-17T05:03:07;6.25;;;4.60;;
24813;SDS011;12904;50.088;11.414;2022-09-17T05:05:33;4.63;;;4.22;;
24813;SDS011;12904;50.088;11.414;2022-09-17T05:07:58;5.07;;;3.90;;
24813;SDS011;12904;50.088;11.414;2022-09-17T05:10:24;3.83;;;3.53;;
24813;SDS011;12904;50.088;11.414;2022-09-17T05:12:53;3.95;;;3.22;;
24813;SDS011;12904;50.088;11.414;2022-09-17T05:15:20;3.30;;;2.67;;
24813;SDS011;12904;50.088;11.414;2022-09-17T05:17:47;3.75;;;2.90;;
24813;SDS011;12904;50.088;11.414;2022-09-17T05:20:14;2.92;;;2.47;;
24813;SDS011;12904;50.088;11.414;2022-09-17T05:22:41;5.32;;;2.72;;
24813;SDS011;12904;50.088;11.414;2022-09-17T05:25:08;4.10;;;3.70;;
24813;SDS011;12904;50.088;11.414;2022-09-17T05:27:34;3.70;;;3.40;;
24813;SDS011;12904;50.088;11.414;2022-09-17T05:29:59;4.28;;;3.83;;
24813;SDS011;12904;50.088;11.414;2022-09-17T05:32:25;5.25;;;4.75;;
24813;SDS011;12904;50.088;11.414;2022-09-17T05:34:51;4.70;;;3.35;;
24813;SDS011;12904;50.088;11.414;2022-09-17T05:37:16;3.83;;;2.75;;
24813;SDS011;12904;50.088;11.414;2022-09-17T05:39:42;3.30;;;3.00;;
24813;SDS011;12904;50.088;11.414;2022-09-17T05:42:07;3.85;;;3.10;;
24813;SDS011;12904;50.088;11.414;2022-09-17T05:44:33;3.50;;;2.67;;
24813;SDS011;12904;50.088;11.414;2022-09-17T05:46:59;4.28;;;3.95;;
24813;SDS011;12904;50.088;11.414;2022-09-17T05:49:24;3.53;;;3.28;;
24813;SDS011;12904;50.088;11.414;2022-09-17T05:51:50;2.85;;;2.58;;
24813;SDS011;12904;50.088;11.414;2022-09-17T05:54:16;3.55;;;2.50;;
24813;SDS011;12904;50.088;11.414;2022-09-17T05:56:41;2.30;;;2.10;;
24813;SDS011;12904;50.088;11.414;2022-09-17T05:59:07;3.03;;;2.72;;
24813;SDS011;12904;50.088;11.414;2022-09-17T06:01:32;3.13;;;2.10;;
24813;SDS011;12904;50.088;11.414;2022-09-17T06:03:58;2.83;;;2.63;;
24813;SDS011;12904;50.088;11.414;2022-09-17T06:06:28;2.35;;;2.03;;
24813;SDS011;12904;50.088;11.414;2022-09-17T06:08:55;1.60;;;1.50;;
24813;SDS011;12904;50.088;11.414;2022-09-17T06:11:23;4.35;;;2.20;;
24813;SDS011;12904;50.088;11.414;2022-09-17T06:13:52;4.82;;;4.53;;
24813;SDS011;12904;50.088;11.414;2022-09-17T06:16:19;2.50;;;2.30;;
24813;SDS011;12904;50.088;11.414;2022-09-17T06:18:45;2.15;;;1.50;;
24813;SDS011;12904;50.088;11.414;2022-09-17T06:21:11;1.98;;;1.35;;
24813;SDS011;12904;50.088;11.414;2022-09-17T06:23:36;1.95;;;1.20;;
24813;SDS011;12904;50.088;11.414;2022-09-17T06:26:03;2.42;;;1.30;;
24813;SDS011;12904;50.088;11.414;2022-09-17T06:28:30;2.55;;;1.70;;
24813;SDS011;12904;50.088;11.414;2022-09-17T06:30:59;1.45;;;1.35;;
24813;SDS011;12904;50.088;11.414;2022-09-17T06:33:26;1.60;;;1.17;;
24813;SDS011;12904;50.088;11.414;2022-09-17T06:35:56;4.10;;;1.20;;
24813;SDS011;12904;50.088;11.414;2022-09-17T06:38:24;1.20;;;1.10;;
24813;SDS011;12904;50.088;11.414;2022-09-17T06:40:51;2.50;;;2.03;;
24813;SDS011;12904;50.088;11.414;2022-09-17T06:43:17;5.30;;;3.97;;
24813;SDS011;12904;50.088;11.414;2022-09-17T06:45:43;3.67;;;2.97;;
24813;SDS011;12904;50.088;11.414;2022-09-17T06:48:15;3.47;;;2.50;;
24813;SDS011;12904;50.088;11.414;2022-09-17T06:50:41;1.95;;;1.30;;
24813;SDS011;12904;50.088;11.414;2022-09-17T06:53:07;1.50;;;1.40;;
24813;SDS011;12904;50.088;11.414;2022-09-17T06:55:33;3.30;;;1.30;;
24813;SDS011;12904;50.088;11.414;2022-09-17T06:57:59;3.30;;;1.38;;
24813;SDS011;12904;50.088;11.414;2022-09-17T07:00:25;1.55;;;1.30;;
24813;SDS011;12904;50.088;11.414;2022-09-17T07:02:57;1.25;;;1.15;;
24813;SDS011;12904;50.088;11.414;2022-09-17T07:05:24;3.40;;;1.50;;
24813;SDS011;12904;50.088;11.414;2022-09-17T07:07:50;3.20;;;2.10;;
24813;SDS011;12904;50.088;11.414;2022-09-17T07:10:16;3.65;;;2.03;;
24813;SDS011;12904;50.088;11.414;2022-09-17T07:12:42;3.38;;;1.80;;
24813;SDS011;12904;50.088;11.414;2022-09-17T07:15:08;1.55;;;1.45;;
24813;SDS011;12904;50.088;11.414;2022-09-17T07:17:40;2.22;;;1.60;;
24813;SDS011;12904;50.088;11.414;2022-09-17T07:20:07;1.38;;;1.20;;
24813;SDS011;12904;50.088;11.414;2022-09-17T07:22:33;2.17;;;1.13;;
24813;SDS011;12904;50.088;11.414;2022-09-17T07:25:00;1.13;;;1.02;;
24813;SDS011;12904;50.088;11.414;2022-09-17T07:27:26;2.08;;;1.00;;
24813;SDS011;12904;50.088;11.414;2022-09-17T07:29:52;2.50;;;1.98;;
24813;SDS011;12904;50.088;11.414;2022-09-17T07:32:18;2.53;;;1.50;;
24813;SDS011;12904;50.088;11.414;2022-09-17T07:34:44;4.45;;;1.60;;
24813;SDS011;12904;50.088;11.414;2022-09-17T07:37:10;3.72;;;2.88;;
24813;SDS011;12904;50.088;11.414;2022-09-17T07:39:35;4.03;;;2.28;;
24813;SDS011;12904;50.088;11.414;2022-09-17T07:42:01;1.85;;;1.40;;
24813;SDS011;12904;50.088;11.414;2022-09-17T07:44:28;1.92;;;1.50;;
24813;SDS011;12904;50.088;11.414;2022-09-17T07:46:54;4.80;;;1.98;;
24813;SDS011;12904;50.088;11.414;2022-09-17T07:49:22;1.75;;;1.40;;
24813;SDS011;12904;50.088;11.414;2022-09-17T07:51:48;3.30;;;2.60;;
24813;SDS011;12904;50.088;11.414;2022-09-17T07:54:14;14.77;;;13.32;;
24813;SDS011;12904;50.088;11.414;2022-09-17T07:56:39;5.78;;;5.28;;
24813;SDS011;12904;50.088;11.414;2022-09-17T07:59:05;5.25;;;3.08;;
24813;SDS011;12904;50.088;11.414;2022-09-17T08:01:31;3.50;;;2.90;;
24813;SDS011;12904;50.088;11.414;2022-09-17T08:04:00;2.90;;;2.47;;
24813;SDS011;12904;50.088;11.414;2022-09-17T08:06:27;3.00;;;2.42;;
24813;SDS011;12904;50.088;11.414;2022-09-17T08:08:54;3.13;;;1.80;;
24813;SDS011;12904;50.088;11.414;2022-09-17T08:11:22;4.05;;;1.83;;
24813;SDS011;12904;50.088;11.414;2022-09-17T08:13:52;7.93;;;2.47;;
24813;SDS011;12904;50.088;11.414;2022-09-17T08:16:19;3.00;;;1.83;;
24813;SDS011;12904;50.088;11.414;2022-09-17T08:18:45;3.05;;;1.80;;
24813;SDS011;12904;50.088;11.414;2022-09-17T08:21:12;6.97;;;1.50;;
24813;SDS011;12904;50.088;11.414;2022-09-17T08:23:40;2.92;;;1.50;;
24813;SDS011;12904;50.088;11.414;2022-09-17T08:26:08;7.63;;;1.67;;
24813;SDS011;12904;50.088;11.414;2022-09-17T08:28:43;5.53;;;1.75;;
24813;SDS011;12904;50.088;11.414;2022-09-17T08:31:10;7.05;;;1.70;;
24813;SDS011;12904;50.088;11.414;2022-09-17T08:33:37;5.35;;;1.70;;
24813;SDS011;12904;50.088;11.414;2022-09-17T08:36:04;3.03;;;1.30;;
24813;SDS011;12904;50.088;11.414;2022-09-17T08:38:33;3.67;;;1.90;;
24813;SDS011;12904;50.088;11.414;2022-09-17T08:43:35;6.35;;;2.03;;
24813;SDS011;12904;50.088;11.414;2022-09-17T08:46:17;4.05;;;1.65;;
24813;SDS011;12904;50.088;11.414;2022-09-17T08:51:41;5.18;;;1.67;;
24813;SDS011;12904;50.088;11.414;2022-09-17T09:05:10;5.40;;;1.88;;
24813;SDS011;12904;50.088;11.414;2022-09-17T09:07:50;6.95;;;1.80;;
24813;SDS011;12904;50.088;11.414;2022-09-17T09:10:22;5.50;;;1.80;;
24813;SDS011;12904;50.088;11.414;2022-09-17T09:12:55;6.32;;;1.70;;
24813;SDS011;12904;50.088;11.414;2022-09-17T09:18:21;7.78;;;1.80;;
24813;SDS011;12904;50.088;11.414;2022-09-17T09:26:12;9.43;;;2.33;;
24813;SDS011;12904;50.088;11.414;2022-09-17T09:31:46;6.93;;;2.03;;
24813;SDS011;12904;50.088;11.414;2022-09-17T09:34:20;5.82;;;2.25;;
24813;SDS011;12904;50.088;11.414;2022-09-17T09:36:48;5.00;;;2.97;;
24813;SDS011;12904;50.088;11.414;2022-09-17T09:39:21;9.45;;;2.55;;
24813;SDS011;12904;50.088;11.414;2022-09-17T09:41:54;9.90;;;2.85;;
24813;SDS011;12904;50.088;11.414;2022-09-17T09:44:31;6.82;;;2.60;;
24813;SDS011;12904;50.088;11.414;2022-09-17T10:01:03;8.53;;;2.27;;
24813;SDS011;12904;50.088;11.414;2022-09-17T10:03:37;14.73;;;4.13;;
24813;SDS011;12904;50.088;11.414;2022-09-17T10:08:41;9.43;;;2.88;;
24813;SDS011;12904;50.088;11.414;2022-09-17T10:13:52;10.48;;;3.42;;
24813;SDS011;12904;50.088;11.414;2022-09-17T10:22:30;6.25;;;2.47;;
24813;SDS011;12904;50.088;11.414;2022-09-17T10:27:58;11.02;;;2.30;;
24813;SDS011;12904;50.088;11.414;2022-09-17T10:30:29;9.65;;;2.60;;
24813;SDS011;12904;50.088;11.414;2022-09-17T10:33:14;8.73;;;3.20;;
24813;SDS011;12904;50.088;11.414;2022-09-17T10:35:42;8.45;;;2.08;;
24813;SDS011;12904;50.088;11.414;2022-09-17T10:41:19;11.65;;;2.75;;
24813;SDS011;12904;50.088;11.414;2022-09-17T10:43:46;11.98;;;2.25;;
24813;SDS011;12904;50.088;11.414;2022-09-17T10:46:14;8.63;;;1.90;;
24813;SDS011;12904;50.088;11.414;2022-09-17T10:48:49;7.47;;;1.70;;
24813;SDS011;12904;50.088;11.414;2022-09-17T10:51:22;7.78;;;1.55;;
24813;SDS011;12904;50.088;11.414;2022-09-17T10:56:36;7.80;;;2.28;;
24813;SDS011;12904;50.088;11.414;2022-09-17T11:04:25;8.30;;;1.85;;
24813;SDS011;12904;50.088;11.414;2022-09-17T11:15:45;6.18;;;2.83;;
24813;SDS011;12904;50.088;11.414;2022-09-17T11:29:37;5.82;;;1.60;;
24813;SDS011;12904;50.088;11.414;2022-09-17T11:32:39;6.50;;;1.67;;
24813;SDS011;12904;50.088;11.414;2022-09-17T11:35:30;4.93;;;1.20;;
24813;SDS011;12904;50.088;11.414;2022-09-17T11:38:02;6.88;;;1.83;;
24813;SDS011;12904;50.088;11.414;2022-09-17T11:45:47;5.00;;;1.25;;
24813;SDS011;12904;50.088;11.414;2022-09-17T11:48:44;6.43;;;1.48;;
24813;SDS011;12904;50.088;11.414;2022-09-17T11:53:50;4.25;;;1.40;;
24813;SDS011;12904;50.088;11.414;2022-09-17T11:56:39;4.97;;;1.45;;
24813;SDS011;12904;50.088;11.414;2022-09-17T12:01:57;3.70;;;1.38;;
24813;SDS011;12904;50.088;11.414;2022-09-17T12:07:03;5.18;;;1.20;;
24813;SDS011;12904;50.088;11.414;2022-09-17T12:09:52;5.93;;;1.55;;
24813;SDS011;12904;50.088;11.414;2022-09-17T12:12:39;6.97;;;1.48;;
24813;SDS011;12904;50.088;11.414;2022-09-17T12:15:13;5.63;;;1.40;;
24813;SDS011;12904;50.088;11.414;2022-09-17T12:20:35;7.03;;;1.67;;
24813;SDS011;12904;50.088;11.414;2022-09-17T12:23:05;1.92;;;0.80;;
24813;SDS011;12904;50.088;11.414;2022-09-17T12:28:48;2.03;;;0.60;;
24813;SDS011;12904;50.088;11.414;2022-09-17T12:31:38;2.75;;;0.80;;
24813;SDS011;12904;50.088;11.414;2022-09-17T12:34:30;1.77;;;0.70;;
24813;SDS011;12904;50.088;11.414;2022-09-17T12:37:46;3.17;;;0.90;;
24813;SDS011;12904;50.088;11.414;2022-09-17T12:40:03;2.22;;;0.70;;
24813;SDS011;12904;50.088;11.414;2022-09-17T12:48:17;4.10;;;0.93;;
24813;SDS011;12904;50.088;11.414;2022-09-17T13:01:15;1.90;;;0.90;;
24813;SDS011;12904;50.088;11.414;2022-09-17T13:03:49;4.22;;;1.20;;
24813;SDS011;12904;50.088;11.414;2022-09-17T13:08:58;3.05;;;1.00;;
24813;SDS011;12904;50.088;11.414;2022-09-17T13:11:57;4.00;;;1.45;;
24813;SDS011;12904;50.088;11.414;2022-09-17T13:17:23;4.03;;;1.20;;
24813;SDS011;12904;50.088;11.414;2022-09-17T13:20:02;2.15;;;0.88;;
24813;SDS011;12904;50.088;11.414;2022-09-17T13:22:47;2.67;;;0.80;;
24813;SDS011;12904;50.088;11.414;2022-09-17T13:25:16;1.38;;;1.17;;
24813;SDS011;12904;50.088;11.414;2022-09-17T13:27:44;2.15;;;1.10;;
24813;SDS011;12904;50.088;11.414;2022-09-17T13:30:12;4.00;;;1.27;;
24813;SDS011;12904;50.088;11.414;2022-09-17T13:37:31;2.20;;;0.80;;
24813;SDS011;12904;50.088;11.414;2022-09-17T13:39:58;2.08;;;0.90;;
24813;SDS011;12904;50.088;11.414;2022-09-17T13:42:26;3.40;;;1.00;;
24813;SDS011;12904;50.088;11.414;2022-09-17T13:45:03;2.58;;;1.00;;
24813;SDS011;12904;50.088;11.414;2022-09-17T13:47:30;1.40;;;0.90;;
24813;SDS011;12904;50.088;11.414;2022-09-17T13:50:09;2.97;;;1.20;;
24813;SDS011;12904;50.088;11.414;2022-09-17T13:52:48;2.50;;;0.90;;
24813;SDS011;12904;50.088;11.414;2022-09-17T13:55:29;3.20;;;1.27;;
24813;SDS011;12904;50.088;11.414;2022-09-17T13:57:59;4.35;;;1.40;;
24813;SDS011;12904;50.088;11.414;2022-09-17T14:00:46;4.10;;;1.15;;
24813;SDS011;12904;50.088;11.414;2022-09-17T14:05:55;3.17;;;1.42;;
24813;SDS011;12904;50.088;11.414;2022-09-17T14:08:30;3.30;;;0.90;;
24813;SDS011;12904;50.088;11.414;2022-09-17T14:11:56;2.63;;;0.77;;
24813;SDS011;12904;50.088;11.414;2022-09-17T14:22:16;2.13;;;0.70;;
24813;SDS011;12904;50.088;11.414;2022-09-17T14:24:50;2.40;;;0.80;;
24813;SDS011;12904;50.088;11.414;2022-09-17T14:33:25;2.70;;;0.95;;
24813;SDS011;12904;50.088;11.414;2022-09-17T14:35:44;3.93;;;1.57;;
24813;SDS011;12904;50.088;11.414;2022-09-17T14:40:58;2.05;;;0.68;;
24813;SDS011;12904;50.088;11.414;2022-09-17T14:48:47;3.28;;;0.80;;
24813;SDS011;12904;50.088;11.414;2022-09-17T14:53:42;2.42;;;0.70;;
24813;SDS011;12904;50.088;11.414;2022-09-17T14:56:15;3.10;;;0.60;;
24813;SDS011;12904;50.088;11.414;2022-09-17T14:58:51;2.13;;;0.65;;
24813;SDS011;12904;50.088;11.414;2022-09-17T15:01:22;1.75;;;0.70;;
24813;SDS011;12904;50.088;11.414;2022-09-17T15:06:33;1.13;;;0.63;;
24813;SDS011;12904;50.088;11.414;2022-09-17T15:08:59;3.67;;;1.10;;
24813;SDS011;12904;50.088;11.414;2022-09-17T15:11:25;4.03;;;0.90;;
24813;SDS011;12904;50.088;11.414;2022-09-17T15:13:52;2.00;;;0.60;;
24813;SDS011;12904;50.088;11.414;2022-09-17T15:18:52;3.67;;;2.40;;
24813;SDS011;12904;50.088;11.414;2022-09-17T15:23:45;2.17;;;0.80;;
24813;SDS011;12904;50.088;11.414;2022-09-17T15:26:13;3.72;;;0.90;;
24813;SDS011;12904;50.088;11.414;2022-09-17T15:31:15;1.13;;;0.73;;
24813;SDS011;12904;50.088;11.414;2022-09-17T15:33:43;2.30;;;0.70;;
24813;SDS011;12904;50.088;11.414;2022-09-17T15:36:17;1.90;;;0.80;;
24813;SDS011;12904;50.088;11.414;2022-09-17T15:38:47;2.20;;;0.73;;
24813;SDS011;12904;50.088;11.414;2022-09-17T15:43:42;2.38;;;1.20;;
24813;SDS011;12904;50.088;11.414;2022-09-17T15:46:25;2.38;;;1.10;;
24813;SDS011;12904;50.088;11.414;2022-09-17T15:48:53;3.33;;;0.88;;
24813;SDS011;12904;50.088;11.414;2022-09-17T15:51:41;3.05;;;1.30;;
24813;SDS011;12904;50.088;11.414;2022-09-17T15:54:17;1.67;;;0.80;;
24813;SDS011;12904;50.088;11.414;2022-09-17T15:56:55;1.15;;;0.88;;
24813;SDS011;12904;50.088;11.414;2022-09-17T15:59:29;1.25;;;0.70;;
24813;SDS011;12904;50.088;11.414;2022-09-17T16:04:24;0.93;;;0.60;;
24813;SDS011;12904;50.088;11.414;2022-09-17T16:12:20;7.78;;;1.40;;
24813;SDS011;12904;50.088;11.414;2022-09-17T16:14:51;4.07;;;1.40;;
24813;SDS011;12904;50.088;11.414;2022-09-17T16:17:32;2.28;;;1.13;;
24813;SDS011;12904;50.088;11.414;2022-09-17T16:20:10;2.65;;;1.63;;
24813;SDS011;12904;50.088;11.414;2022-09-17T16:22:38;1.00;;;0.90;;
24813;SDS011;12904;50.088;11.414;2022-09-17T16:25:04;4.60;;;1.08;;
24813;SDS011;12904;50.088;11.414;2022-09-17T16:27:31;1.85;;;1.00;;
24813;SDS011;12904;50.088;11.414;2022-09-17T16:30:04;3.15;;;1.63;;
24813;SDS011;12904;50.088;11.414;2022-09-17T16:32:33;2.40;;;1.70;;
24813;SDS011;12904;50.088;11.414;2022-09-17T16:34:59;3.63;;;1.48;;
24813;SDS011;12904;50.088;11.414;2022-09-17T16:37:25;2.38;;;1.20;;
24813;SDS011;12904;50.088;11.414;2022-09-17T16:39:50;3.33;;;3.03;;
24813;SDS011;12904;50.088;11.414;2022-09-17T16:42:16;20.88;;;19.17;;
24813;SDS011;12904;50.088;11.414;2022-09-17T16:44:42;7.65;;;6.78;;
24813;SDS011;12904;50.088;11.414;2022-09-17T16:47:08;4.53;;;2.00;;
24813;SDS011;12904;50.088;11.414;2022-09-17T16:49:34;3.10;;;2.33;;
24813;SDS011;12904;50.088;11.414;2022-09-17T16:51:59;1.70;;;1.48;;
24813;SDS011;12904;50.088;11.414;2022-09-17T16:54:25;4.00;;;1.08;;
24813;SDS011;12904;50.088;11.414;2022-09-17T16:56:51;2.40;;;0.90;;
24813;SDS011;12904;50.088;11.414;2022-09-17T16:59:16;4.50;;;0.60;;
24813;SDS011;12904;50.088;11.414;2022-09-17T17:01:42;0.80;;;0.50;;
24813;SDS011;12904;50.088;11.414;2022-09-17T17:04:08;1.42;;;0.63;;
24813;SDS011;12904;50.088;11.414;2022-09-17T17:06:33;1.17;;;0.70;;
24813;SDS011;12904;50.088;11.414;2022-09-17T17:08:59;2.47;;;0.80;;
24813;SDS011;12904;50.088;11.414;2022-09-17T17:11:26;0.70;;;0.47;;
24813;SDS011;12904;50.088;11.414;2022-09-17T17:13:52;0.88;;;0.65;;
24813;SDS011;12904;50.088;11.414;2022-09-17T17:16:20;0.30;;;0.30;;
24813;SDS011;12904;50.088;11.414;2022-09-17T17:18:47;0.40;;;0.40;;
24813;SDS011;12904;50.088;11.414;2022-09-17T17:21:13;0.40;;;0.40;;
24813;SDS011;12904;50.088;11.414;2022-09-17T17:23:39;2.92;;;0.88;;
24813;SDS011;12904;50.088;11.414;2022-09-17T17:26:07;1.50;;;1.13;;
24813;SDS011;12904;50.088;11.414;2022-09-17T17:28:33;1.77;;;1.60;;
24813;SDS011;12904;50.088;11.414;2022-09-17T17:31:00;1.40;;;1.30;;
24813;SDS011;12904;50.088;11.414;2022-09-17T17:33:27;1.02;;;0.93;;
24813;SDS011;12904;50.088;11.414;2022-09-17T17:35:52;1.40;;;0.75;;
24813;SDS011;12904;50.088;11.414;2022-09-17T17:38:18;1.42;;;0.70;;
24813;SDS011;12904;50.088;11.414;2022-09-17T17:40:44;1.45;;;0.60;;
24813;SDS011;12904;50.088;11.414;2022-09-17T17:43:13;1.65;;;0.70;;
24813;SDS011;12904;50.088;11.414;2022-09-17T17:45:39;2.83;;;0.88;;
24813;SDS011;12904;50.088;11.414;2022-09-17T17:48:04;0.52;;;0.52;;
24813;SDS011;12904;50.088;11.414;2022-09-17T17:50:30;3.05;;;0.65;;
24813;SDS011;12904;50.088;11.414;2022-09-17T17:52:56;1.20;;;1.00;;
24813;SDS011;12904;50.088;11.414;2022-09-17T17:55:22;0.73;;;0.73;;
24813;SDS011;12904;50.088;11.414;2022-09-17T17:57:53;2.47;;;0.90;;
24813;SDS011;12904;50.088;11.414;2022-09-17T18:00:20;0.70;;;0.70;;
24813;SDS011;12904;50.088;11.414;2022-09-17T18:02:45;2.05;;;1.10;;
24813;SDS011;12904;50.088;11.414;2022-09-17T18:05:11;2.90;;;1.90;;
24813;SDS011;12904;50.088;11.414;2022-09-17T18:07:37;2.35;;;1.65;;
24813;SDS011;12904;50.088;11.414;2022-09-17T18:10:02;2.33;;;1.50;;
24813;SDS011;12904;50.088;11.414;2022-09-17T18:12:29;2.88;;;1.20;;
24813;SDS011;12904;50.088;11.414;2022-09-17T18:14:54;2.78;;;1.13;;
24813;SDS011;12904;50.088;11.414;2022-09-17T18:17:20;4.65;;;0.90;;
24813;SDS011;12904;50.088;11.414;2022-09-17T18:19:46;1.17;;;0.90;;
24813;SDS011;12904;50.088;11.414;2022-09-17T18:22:11;1.88;;;0.98;;
24813;SDS011;12904;50.088;11.414;2022-09-17T18:24:37;2.05;;;0.98;;
24813;SDS011;12904;50.088;11.414;2022-09-17T18:27:02;1.75;;;0.90;;
24813;SDS011;12904;50.088;11.414;2022-09-17T18:29:28;2.72;;;0.93;;
24813;SDS011;12904;50.088;11.414;2022-09-17T18:31:54;1.55;;;0.85;;
24813;SDS011;12904;50.088;11.414;2022-09-17T18:34:19;1.55;;;0.70;;
24813;SDS011;12904;50.088;11.414;2022-09-17T18:36:45;2.90;;;0.70;;
24813;SDS011;12904;50.088;11.414;2022-09-17T18:39:11;2.97;;;0.80;;
24813;SDS011;12904;50.088;11.414;2022-09-17T18:41:39;2.03;;;0.70;;
24813;SDS011;12904;50.088;11.414;2022-09-17T18:44:05;1.60;;;0.80;;
24813;SDS011;12904;50.088;11.414;2022-09-17T18:46:32;1.15;;;0.70;;